createdAt,value
2022-12-08T00:01:12.470Z,6.03
2022-12-08T00:03:40.242Z,6.53
2022-12-08T00:06:26.907Z,6.75
2022-12-08T00:09:23.512Z,12.30
2022-12-08T00:11:57.762Z,9.18
2022-12-08T00:14:33.226Z,7.45
2022-12-08T00:17:00.908Z,9.18
2022-12-08T00:19:28.535Z,9.70
2022-12-08T00:21:56.486Z,8.45
2022-12-08T00:24:24.572Z,9.23
2022-12-08T00:26:51.778Z,8.70
2022-12-08T00:29:19.367Z,8.80
2022-12-08T00:31:46.814Z,11.48
2022-12-08T00:34:14.820Z,12.07
2022-12-08T00:36:42.318Z,15.35
2022-12-08T00:39:13.690Z,9.88
2022-12-08T00:41:59.574Z,12.48
2022-12-08T00:44:27.375Z,14.75
2022-12-08T00:46:54.613Z,10.77
2022-12-08T00:49:21.819Z,14.88
2022-12-08T00:51:49.009Z,14.35
2022-12-08T00:54:16.346Z,15.20
2022-12-08T00:56:43.597Z,10.38
2022-12-08T00:59:10.875Z,10.48
2022-12-08T01:01:38.162Z,9.88
2022-12-08T01:04:09.513Z,7.93
2022-12-08T01:06:38.723Z,10.07
2022-12-08T01:09:07.050Z,8.18
2022-12-08T01:11:34.643Z,10.00
2022-12-08T01:14:01.769Z,6.20
2022-12-08T01:16:30.393Z,9.40
2022-12-08T01:18:58.615Z,3.42
2022-12-08T01:21:26.172Z,9.63
2022-12-08T01:23:54.307Z,6.68
2022-12-08T01:26:21.453Z,6.53
2022-12-08T01:28:48.798Z,6.35
2022-12-08T01:31:18.571Z,7.35
2022-12-08T01:33:45.989Z,6.75
2022-12-08T01:36:20.945Z,5.72
2022-12-08T01:38:49.994Z,2.85
2022-12-08T01:41:18.783Z,5.47
2022-12-08T01:43:52.315Z,7.55
2022-12-08T01:46:19.582Z,4.45
2022-12-08T01:48:49.178Z,3.33
2022-12-08T01:51:16.444Z,2.03
2022-12-08T01:53:44.031Z,5.97
2022-12-08T01:56:21.238Z,4.30
2022-12-08T01:58:50.225Z,2.55
2022-12-08T02:01:18.054Z,3.20
2022-12-08T02:03:51.014Z,4.78
2022-12-08T02:06:19.624Z,2.38
2022-12-08T02:08:47.511Z,6.13
2022-12-08T02:11:14.648Z,6.60
2022-12-08T02:13:43.334Z,3.88
2022-12-08T02:16:29.505Z,5.63
2022-12-08T02:19:29.166Z,4.47
2022-12-08T02:21:47.181Z,7.85
2022-12-08T02:24:23.590Z,8.05
2022-12-08T02:27:09.858Z,8.73
2022-12-08T02:29:53.536Z,6.70
2022-12-08T02:32:33.547Z,6.03
2022-12-08T02:35:00.687Z,6.25
2022-12-08T02:37:31.475Z,7.53
2022-12-08T02:40:09.653Z,7.93
2022-12-08T02:42:40.763Z,4.68
2022-12-08T02:45:12.614Z,8.68
2022-12-08T02:47:40.814Z,11.02
2022-12-08T02:50:12.127Z,11.20
2022-12-08T02:52:40.637Z,3.40
2022-12-08T02:55:11.517Z,8.60
2022-12-08T02:58:05.252Z,11.10
2022-12-08T03:00:38.973Z,7.03
2022-12-08T03:03:10.394Z,9.85
2022-12-08T03:05:40.678Z,8.82
2022-12-08T03:08:21.160Z,10.40
2022-12-08T03:11:02.072Z,9.57
2022-12-08T03:13:33.253Z,11.88
2022-12-08T03:16:01.743Z,11.05
2022-12-08T03:18:31.970Z,12.80
2022-12-08T03:20:59.683Z,9.77
2022-12-08T03:23:27.383Z,11.60
2022-12-08T03:26:00.454Z,9.25
2022-12-08T03:28:27.906Z,10.93
2022-12-08T03:30:57.120Z,12.93
2022-12-08T03:33:25.795Z,9.27
2022-12-08T03:35:53.798Z,3.45
2022-12-08T03:38:21.094Z,9.70
2022-12-08T03:41:08.237Z,5.13
2022-12-08T03:43:35.430Z,2.58
2022-12-08T03:46:02.927Z,9.52
2022-12-08T03:48:30.304Z,7.60
2022-12-08T03:50:57.519Z,7.80
2022-12-08T03:53:24.723Z,9.70
2022-12-08T03:55:53.394Z,9.82
2022-12-08T03:58:20.732Z,6.25
2022-12-08T04:00:47.851Z,7.68
2022-12-08T04:03:15.157Z,3.75
2022-12-08T04:05:42.479Z,5.28
2022-12-08T04:08:09.760Z,5.47
2022-12-08T04:10:36.994Z,5.68
2022-12-08T04:13:04.345Z,4.50
2022-12-08T04:15:31.604Z,8.88
2022-12-08T04:17:58.772Z,3.15
2022-12-08T04:20:25.987Z,5.10
2022-12-08T04:22:53.258Z,3.03
2022-12-08T04:25:23.453Z,6.25
2022-12-08T04:27:50.748Z,6.68
2022-12-08T04:30:17.933Z,2.97
2022-12-08T04:32:47.499Z,4.63
2022-12-08T04:35:15.032Z,3.60
2022-12-08T04:37:43.264Z,3.63
2022-12-08T04:40:11.097Z,4.68
2022-12-08T04:42:38.626Z,3.42
2022-12-08T04:45:06.319Z,5.93
2022-12-08T04:47:33.534Z,4.47
2022-12-08T04:50:00.949Z,5.68
2022-12-08T04:52:28.358Z,7.93
2022-12-08T04:54:55.572Z,10.75
2022-12-08T04:57:22.807Z,3.70
2022-12-08T04:59:50.024Z,6.38
2022-12-08T05:02:17.243Z,5.30
2022-12-08T05:04:44.525Z,5.35
2022-12-08T05:07:11.700Z,5.35
2022-12-08T05:09:38.891Z,5.43
2022-12-08T05:12:06.203Z,5.28
2022-12-08T05:14:33.502Z,5.43
2022-12-08T05:17:04.847Z,3.58
2022-12-08T05:19:35.094Z,5.88
2022-12-08T05:22:02.400Z,4.10
2022-12-08T05:24:29.588Z,5.78
2022-12-08T05:26:56.758Z,5.15
2022-12-08T05:29:23.944Z,7.32
2022-12-08T05:31:51.358Z,5.22
2022-12-08T05:34:18.665Z,4.13
2022-12-08T05:36:45.790Z,6.68
2022-12-08T05:39:13.899Z,3.17
2022-12-08T05:41:41.422Z,7.10
2022-12-08T05:44:08.851Z,5.07
2022-12-08T05:46:36.115Z,4.15
2022-12-08T05:49:03.923Z,3.80
2022-12-08T05:51:31.188Z,4.47
2022-12-08T05:53:58.403Z,2.25
2022-12-08T05:56:25.748Z,2.05
2022-12-08T05:58:52.867Z,2.55
2022-12-08T06:01:20.119Z,3.47
2022-12-08T06:03:47.351Z,3.95
2022-12-08T06:06:14.507Z,7.55
2022-12-08T06:08:41.655Z,1.50
2022-12-08T06:11:09.034Z,4.15
2022-12-08T06:13:36.493Z,3.30
2022-12-08T06:16:07.316Z,3.10
2022-12-08T06:18:34.654Z,2.88
2022-12-08T06:21:05.983Z,2.95
2022-12-08T06:23:33.178Z,3.38
2022-12-08T06:26:04.712Z,4.70
2022-12-08T06:28:35.396Z,3.58
2022-12-08T06:31:07.555Z,1.38
2022-12-08T06:33:34.752Z,1.17
2022-12-08T06:36:01.907Z,2.72
2022-12-08T06:38:29.070Z,1.27
2022-12-08T06:40:56.880Z,2.70
2022-12-08T06:43:24.383Z,2.95
2022-12-08T06:45:51.643Z,0.95
2022-12-08T06:48:19.407Z,2.25
2022-12-08T06:50:46.818Z,0.60
2022-12-08T06:53:17.054Z,2.25
2022-12-08T06:55:59.265Z,1.08
2022-12-08T06:58:28.701Z,1.98
2022-12-08T07:00:57.041Z,2.33
2022-12-08T07:03:24.256Z,1.40
2022-12-08T07:05:51.507Z,2.65
2022-12-08T07:08:19.106Z,2.45
2022-12-08T07:10:46.308Z,3.03
2022-12-08T07:13:13.460Z,3.25
2022-12-08T07:15:40.756Z,2.83
2022-12-08T07:18:07.989Z,5.85
2022-12-08T07:20:35.906Z,3.10
2022-12-08T07:23:03.047Z,5.78
2022-12-08T07:25:30.215Z,4.20
2022-12-08T07:27:57.466Z,4.80
2022-12-08T07:30:24.996Z,1.77
2022-12-08T07:32:52.165Z,4.80
2022-12-08T07:35:19.682Z,6.18
2022-12-08T07:37:46.955Z,5.13
2022-12-08T07:40:14.372Z,6.93
2022-12-08T07:42:41.517Z,4.30
2022-12-08T07:45:09.019Z,5.05
2022-12-08T07:47:36.169Z,5.00
2022-12-08T07:50:04.515Z,9.18
2022-12-08T07:52:31.915Z,9.35
2022-12-08T07:54:59.154Z,16.25
2022-12-08T07:57:26.370Z,9.07
2022-12-08T07:59:53.619Z,6.15
2022-12-08T08:02:24.687Z,12.15
2022-12-08T08:04:53.171Z,6.88
2022-12-08T08:07:20.424Z,31.23
2022-12-08T08:09:47.660Z,8.80
2022-12-08T08:12:30.916Z,6.45
2022-12-08T08:14:59.890Z,6.90
2022-12-08T08:17:27.210Z,6.90
2022-12-08T08:19:54.473Z,6.20
2022-12-08T08:22:21.627Z,6.03
2022-12-08T08:24:48.808Z,6.22
2022-12-08T08:27:16.050Z,4.15
2022-12-08T08:29:43.174Z,5.25
2022-12-08T08:32:10.342Z,3.53
2022-12-08T08:34:37.627Z,2.92
2022-12-08T08:37:04.893Z,2.92
2022-12-08T08:39:32.202Z,5.90
2022-12-08T08:41:59.511Z,3.28
2022-12-08T08:44:26.756Z,5.07
2022-12-08T08:46:54.067Z,6.10
2022-12-08T08:49:21.464Z,1.67
2022-12-08T08:51:48.645Z,4.30
2022-12-08T08:54:16.170Z,4.68
2022-12-08T08:56:43.400Z,4.05
2022-12-08T08:59:11.051Z,7.38
2022-12-08T09:01:38.266Z,5.20
2022-12-08T09:04:05.798Z,6.47
2022-12-08T09:06:33.190Z,4.53
2022-12-08T09:09:00.494Z,4.03
2022-12-08T09:11:27.888Z,5.95
2022-12-08T09:13:55.774Z,4.22
2022-12-08T09:16:23.313Z,3.90
2022-12-08T09:18:50.882Z,4.30
2022-12-08T09:21:22.689Z,4.68
2022-12-08T09:23:51.048Z,3.60
2022-12-08T09:26:18.281Z,2.72
2022-12-08T09:28:46.763Z,2.35
2022-12-08T09:31:15.225Z,4.10
2022-12-08T09:33:42.521Z,3.00
2022-12-08T09:36:10.284Z,5.20
2022-12-08T09:38:37.757Z,3.72
2022-12-08T09:41:08.492Z,2.88
2022-12-08T09:46:05.698Z,1.83
2022-12-08T09:48:36.302Z,5.07
2022-12-08T09:51:04.130Z,3.15
2022-12-08T09:53:43.154Z,6.95
2022-12-08T09:56:32.952Z,5.07
2022-12-08T09:59:00.106Z,2.78
2022-12-08T10:01:29.889Z,4.25
2022-12-08T10:03:57.574Z,3.95
2022-12-08T10:06:37.166Z,3.85
2022-12-08T10:09:11.153Z,3.25
2022-12-08T10:11:49.017Z,3.47
2022-12-08T10:14:24.639Z,5.20
2022-12-08T10:16:53.932Z,4.72
2022-12-08T10:19:22.934Z,5.57
2022-12-08T10:21:50.934Z,4.22
2022-12-08T10:24:40.670Z,1.80
2022-12-08T10:27:11.654Z,2.83
2022-12-08T10:29:39.795Z,1.58
2022-12-08T10:32:14.081Z,1.48
2022-12-08T10:35:01.693Z,1.85
2022-12-08T10:37:28.946Z,1.15
2022-12-08T10:40:04.654Z,1.98
2022-12-08T10:42:41.023Z,4.70
2022-12-08T10:45:11.213Z,4.10
2022-12-08T10:47:44.590Z,3.60
2022-12-08T10:50:23.008Z,2.63
2022-12-08T10:52:57.968Z,1.00
2022-12-08T10:55:25.603Z,0.98
2022-12-08T10:57:53.326Z,1.40
2022-12-08T11:00:29.664Z,3.22
2022-12-08T11:03:04.396Z,1.98
2022-12-08T11:05:35.332Z,1.65
2022-12-08T11:08:03.658Z,5.38
2022-12-08T11:10:38.561Z,3.15
2022-12-08T11:13:07.215Z,4.13
2022-12-08T11:15:36.700Z,4.20
2022-12-08T11:18:24.950Z,4.78
2022-12-08T11:21:00.378Z,3.70
2022-12-08T11:23:28.988Z,2.50
2022-12-08T11:25:58.718Z,4.65
2022-12-08T11:28:26.459Z,4.43
2022-12-08T11:30:57.514Z,5.03
2022-12-08T11:33:29.168Z,6.38
2022-12-08T11:36:12.264Z,5.53
2022-12-08T11:38:44.332Z,2.60
2022-12-08T11:41:20.744Z,5.97
2022-12-08T11:44:03.067Z,4.38
2022-12-08T11:46:49.204Z,8.05
2022-12-08T11:49:18.222Z,3.65
2022-12-08T11:51:53.899Z,7.07
2022-12-08T11:54:24.221Z,4.32
2022-12-08T11:57:02.276Z,6.13
2022-12-08T11:59:35.326Z,6.90
2022-12-08T12:02:03.698Z,8.63
2022-12-08T12:04:37.688Z,7.15
2022-12-08T12:07:10.687Z,4.97
2022-12-08T12:09:37.939Z,8.80
2022-12-08T12:12:19.957Z,8.98
2022-12-08T12:15:07.564Z,5.32
2022-12-08T12:17:34.873Z,8.25
2022-12-08T12:20:05.811Z,6.35
2022-12-08T12:22:35.572Z,7.05
2022-12-08T12:25:04.303Z,6.18
2022-12-08T12:27:39.944Z,4.43
2022-12-08T12:30:09.074Z,2.70
2022-12-08T12:32:45.445Z,4.75
2022-12-08T12:35:42.014Z,6.63
2022-12-08T12:38:47.787Z,6.72
2022-12-08T12:41:19.736Z,7.43
2022-12-08T12:44:08.383Z,6.00
2022-12-08T12:46:50.661Z,7.07
2022-12-08T12:49:36.683Z,7.32
2022-12-08T12:52:04.442Z,7.32
2022-12-08T12:54:31.725Z,5.57
2022-12-08T12:57:05.012Z,7.88
2022-12-08T12:59:35.207Z,8.38
2022-12-08T13:02:02.774Z,4.53
2022-12-08T13:04:39.243Z,5.18
2022-12-08T13:07:06.823Z,5.13
2022-12-08T13:09:38.192Z,7.43
2022-12-08T13:12:10.419Z,4.78
2022-12-08T13:14:41.888Z,6.15
2022-12-08T13:17:13.449Z,5.45
2022-12-08T13:19:41.573Z,6.60
2022-12-08T13:22:27.551Z,5.93
2022-12-08T13:25:14.987Z,5.13
2022-12-08T13:27:52.406Z,4.78
2022-12-08T13:30:42.431Z,6.88
2022-12-08T13:33:19.023Z,5.93
2022-12-08T13:35:49.766Z,6.60
2022-12-08T13:40:44.679Z,4.85
2022-12-08T13:43:22.366Z,6.30
2022-12-08T13:50:47.878Z,7.78
2022-12-08T13:53:35.098Z,6.10
2022-12-08T13:56:05.479Z,6.13
2022-12-08T13:57:33.450Z,9.68
2022-12-08T14:00:02.310Z,7.68
2022-12-08T14:02:47.699Z,7.40
2022-12-08T14:05:18.669Z,5.80
2022-12-08T14:07:48.198Z,9.25
2022-12-08T14:10:18.850Z,8.25
2022-12-08T14:15:17.904Z,7.25
2022-12-08T14:17:52.248Z,8.63
2022-12-08T14:20:28.127Z,9.48
2022-12-08T14:22:55.614Z,7.00
2022-12-08T14:25:23.610Z,10.65
2022-12-08T14:27:51.088Z,9.30
2022-12-08T14:30:22.665Z,9.05
2022-12-08T14:32:50.917Z,9.18
2022-12-08T14:35:21.094Z,11.35
2022-12-08T14:37:49.351Z,12.88
2022-12-08T14:40:23.130Z,10.90
2022-12-08T14:42:53.026Z,14.25
2022-12-08T14:45:20.791Z,12.98
2022-12-08T14:47:48.686Z,14.95
2022-12-08T14:50:34.839Z,11.20
2022-12-08T14:53:02.326Z,11.25
2022-12-08T14:55:37.608Z,12.25
2022-12-08T14:58:05.097Z,10.13
2022-12-08T15:00:32.292Z,9.38
2022-12-08T15:02:59.668Z,9.43
2022-12-08T15:05:29.617Z,7.95
2022-12-08T15:08:00.990Z,12.15
2022-12-08T15:10:31.899Z,9.57
2022-12-08T15:13:24.043Z,8.45
2022-12-08T15:16:01.813Z,4.80
2022-12-08T15:18:36.841Z,11.13
2022-12-08T15:21:09.017Z,10.70
2022-12-08T15:23:46.595Z,7.47
2022-12-08T15:26:20.309Z,12.50
2022-12-08T15:28:47.466Z,14.98
2022-12-08T15:31:15.446Z,12.98
2022-12-08T15:33:42.676Z,14.88
2022-12-08T15:36:10.031Z,12.30
2022-12-08T15:38:37.865Z,12.52
2022-12-08T15:41:07.986Z,6.07
2022-12-08T15:43:37.401Z,11.43
2022-12-08T15:46:05.430Z,10.48
2022-12-08T15:48:32.650Z,10.05
2022-12-08T15:50:59.993Z,9.13
2022-12-08T15:53:27.259Z,16.05
2022-12-08T15:58:58.328Z,14.25
2022-12-08T16:01:26.274Z,13.00
2022-12-08T16:09:34.146Z,14.65
2022-12-08T16:12:20.414Z,12.68
2022-12-08T16:15:47.210Z,13.57
2022-12-08T16:17:35.439Z,17.88
2022-12-08T16:20:03.158Z,22.80
2022-12-08T16:26:08.612Z,26.95
2022-12-08T16:28:52.828Z,24.38
2022-12-08T16:31:16.679Z,27.80
2022-12-08T16:33:45.982Z,19.42
2022-12-08T16:36:13.169Z,27.45
2022-12-08T16:38:40.378Z,14.43
2022-12-08T16:41:25.957Z,11.88
2022-12-08T16:43:53.211Z,11.30
2022-12-08T16:46:26.278Z,16.05
2022-12-08T16:48:53.527Z,16.00
2022-12-08T16:51:26.596Z,12.63
2022-12-08T16:53:54.158Z,16.92
2022-12-08T16:56:26.249Z,12.35
2022-12-08T16:58:57.840Z,13.75
2022-12-08T17:01:25.068Z,14.75
2022-12-08T17:04:22.592Z,17.13
2022-12-08T17:06:39.366Z,17.17
2022-12-08T17:09:06.614Z,15.60
2022-12-08T17:11:39.165Z,14.48
2022-12-08T17:14:09.843Z,13.05
2022-12-08T17:16:37.240Z,16.40
2022-12-08T17:19:04.735Z,10.98
2022-12-08T17:21:32.196Z,14.30
2022-12-08T17:23:59.516Z,13.77
2022-12-08T17:26:26.715Z,18.85
2022-12-08T17:29:01.650Z,15.00
2022-12-08T17:31:30.670Z,16.30
2022-12-08T17:34:02.298Z,13.73
2022-12-08T17:36:29.539Z,16.50
2022-12-08T17:38:57.112Z,15.52
2022-12-08T17:41:24.414Z,24.42
2022-12-08T17:43:51.773Z,22.77
2022-12-08T17:46:20.359Z,10.07
2022-12-08T17:48:47.598Z,9.48
2022-12-08T17:51:15.105Z,13.38
2022-12-08T17:53:42.402Z,12.07
2022-12-08T17:56:16.924Z,14.38
2022-12-08T17:58:44.915Z,15.50
2022-12-08T18:01:13.203Z,14.35
2022-12-08T18:03:43.329Z,27.92
2022-12-08T18:06:12.402Z,40.38
2022-12-08T18:08:39.924Z,37.95
2022-12-08T18:11:11.915Z,29.13
2022-12-08T18:13:39.255Z,22.90
2022-12-08T18:16:06.539Z,24.08
2022-12-08T18:18:33.751Z,19.70
2022-12-08T18:21:01.001Z,17.60
2022-12-08T18:23:28.445Z,16.08
2022-12-08T18:25:58.142Z,19.33
2022-12-08T18:28:25.399Z,18.40
2022-12-08T18:30:52.913Z,15.63
2022-12-08T18:33:20.066Z,13.93
2022-12-08T18:35:47.336Z,17.17
2022-12-08T18:38:14.470Z,17.63
2022-12-08T18:40:42.019Z,15.95
2022-12-08T18:43:09.211Z,18.73
2022-12-08T18:45:39.924Z,15.70
2022-12-08T18:48:08.507Z,14.27
2022-12-08T18:50:35.738Z,17.30
2022-12-08T18:53:03.063Z,13.23
2022-12-08T18:55:30.235Z,17.15
2022-12-08T18:57:57.508Z,16.83
2022-12-08T19:00:24.780Z,31.98
2022-12-08T19:02:52.382Z,26.65
2022-12-08T19:05:24.993Z,19.52
2022-12-08T19:07:52.637Z,17.42
2022-12-08T19:10:21.993Z,41.15
2022-12-08T19:12:52.979Z,27.48
2022-12-08T19:15:21.195Z,19.60
2022-12-08T19:17:48.443Z,21.35
2022-12-08T19:20:15.999Z,19.38
2022-12-08T19:22:43.354Z,27.15
2022-12-08T19:25:13.242Z,29.95
2022-12-08T19:27:40.920Z,24.58
2022-12-08T19:30:08.690Z,21.35
2022-12-08T19:32:36.173Z,20.52
2022-12-08T19:35:07.622Z,18.58
2022-12-08T19:37:35.789Z,16.80
2022-12-08T19:40:21.889Z,20.38
2022-12-08T19:43:07.802Z,16.27
2022-12-08T19:45:35.833Z,18.88
2022-12-08T19:48:03.457Z,21.38
2022-12-08T19:50:36.840Z,30.30
2022-12-08T19:53:05.622Z,26.48
2022-12-08T19:55:32.991Z,24.88
2022-12-08T19:58:01.980Z,19.85
2022-12-08T20:00:29.992Z,25.58
2022-12-08T20:02:58.282Z,31.08
2022-12-08T20:05:28.465Z,26.73
2022-12-08T20:07:56.591Z,21.75
2022-12-08T20:10:28.734Z,22.73
2022-12-08T20:13:17.966Z,23.30
2022-12-08T20:15:46.318Z,29.55
2022-12-08T20:18:14.480Z,29.23
2022-12-08T20:20:42.087Z,23.95
2022-12-08T20:23:09.556Z,27.70
2022-12-08T20:25:40.896Z,30.80
2022-12-08T20:28:09.266Z,33.35
2022-12-08T20:30:38.921Z,32.42
2022-12-08T20:33:06.403Z,31.23
2022-12-08T20:35:33.800Z,31.42
2022-12-08T20:38:01.136Z,37.58
2022-12-08T20:40:28.347Z,28.27
2022-12-08T20:42:55.584Z,31.98
2022-12-08T20:45:22.755Z,35.70
2022-12-08T20:47:50.532Z,34.08
2022-12-08T20:50:18.435Z,36.45
2022-12-08T20:52:46.764Z,39.63
2022-12-08T20:55:14.260Z,38.17
2022-12-08T20:57:41.559Z,41.92
2022-12-08T21:00:09.415Z,51.10
2022-12-08T21:02:43.294Z,40.58
2022-12-08T21:05:14.778Z,38.75
2022-12-08T21:07:42.226Z,39.40
2022-12-08T21:10:10.154Z,46.20
2022-12-08T21:12:39.089Z,38.40
2022-12-08T21:15:07.706Z,39.00
2022-12-08T21:17:35.303Z,35.92
2022-12-08T21:20:04.679Z,39.72
2022-12-08T21:22:32.454Z,36.63
2022-12-08T21:24:59.681Z,44.08
2022-12-08T21:27:26.891Z,43.60
2022-12-08T21:29:54.408Z,41.45
2022-12-08T21:32:25.672Z,39.13
2022-12-08T21:34:56.370Z,40.50
2022-12-08T21:37:24.542Z,40.72
2022-12-08T21:39:54.694Z,42.03
2022-12-08T21:42:40.646Z,37.40
2022-12-08T21:45:10.629Z,34.78
2022-12-08T21:50:06.637Z,35.42
2022-12-08T21:52:37.886Z,39.05
2022-12-08T21:55:05.809Z,43.08
2022-12-08T21:57:33.339Z,39.95
2022-12-08T22:00:00.794Z,43.50
2022-12-08T22:02:28.486Z,43.65
2022-12-08T22:04:56.448Z,44.45
2022-12-08T22:07:23.825Z,46.67
2022-12-08T22:09:51.299Z,54.92
2022-12-08T22:12:18.647Z,51.70
2022-12-08T22:14:46.005Z,44.47
2022-12-08T22:17:13.438Z,45.78
2022-12-08T22:19:40.846Z,43.95
2022-12-08T22:22:08.328Z,48.25
2022-12-08T22:24:35.547Z,53.92
2022-12-08T22:27:02.780Z,49.55
2022-12-08T22:29:30.046Z,55.33
2022-12-08T22:31:57.284Z,45.25
2022-12-08T22:34:24.672Z,42.15
2022-12-08T22:36:52.076Z,44.58
2022-12-08T22:39:19.269Z,43.47
2022-12-08T22:41:46.507Z,48.92
2022-12-08T22:44:15.949Z,50.28
2022-12-08T22:46:43.170Z,54.58
2022-12-08T22:49:10.606Z,50.92
2022-12-08T22:51:38.415Z,45.20
2022-12-08T22:54:05.964Z,43.92
2022-12-08T22:56:33.308Z,45.28
2022-12-08T22:59:00.557Z,43.85
2022-12-08T23:01:29.670Z,44.15
2022-12-08T23:03:58.474Z,46.17
2022-12-08T23:06:26.496Z,50.92
2022-12-08T23:08:54.301Z,41.78
2022-12-08T23:11:23.469Z,43.47
2022-12-08T23:13:50.722Z,40.10
2022-12-08T23:16:18.199Z,42.35
2022-12-08T23:18:47.045Z,43.90
2022-12-08T23:21:15.894Z,44.72
2022-12-08T23:23:43.437Z,44.25
2022-12-08T23:26:18.465Z,45.03
2022-12-08T23:28:46.120Z,39.75
2022-12-08T23:31:13.413Z,42.63
2022-12-08T23:33:40.941Z,43.78
2022-12-08T23:36:08.477Z,38.83
2022-12-08T23:38:35.830Z,41.60
2022-12-08T23:41:04.345Z,43.72
2022-12-08T23:43:31.576Z,48.25
2022-12-08T23:45:58.968Z,40.63
2022-12-08T23:48:27.869Z,43.47
2022-12-08T23:50:57.054Z,39.72
2022-12-08T23:53:24.397Z,38.72
2022-12-08T23:55:58.715Z,37.00
2022-12-08T23:58:26.281Z,36.47
